Hyeres, France

4:34 AM CEST on September 23, 2017 (GMT +0200)
Le Palyvestre Navy

Weather History for LFTH - May, 2014

Change the Weather History Date:

Saturday, May 3, 2014

  Actual Average Record
Temperature  
Mean Temperature 60 °F -  
Max Temperature 74 °F 70 °F 81 °F (2016)
Min Temperature 47 °F 55 °F 43 °F (2017)
Degree Days  
Heating Degree Days 4    
Growing Degree Days 10 (Base 50)    
Moisture  
Dew Point 48 °F    
Average Humidity 62    
Maximum Humidity 89    
Minimum Humidity 28    
Precipitation  
Precipitation 0.00 in - - ()
Sea Level Pressure  
Sea Level Pressure 29.75 in    
Wind  
Wind Speed 6 mph ()    
Max Wind Speed 17 mph    
Max Gust Speed 22 mph    
Visibility 6.7 miles    
Events Thunderstorm    
Averages and records for this station are not official NWS values.
T = Trace of Precipitation, MM = Missing Value Source: Averaged Metar Reports

Daily Weather History Graph

Daily Weather History Graph

Search for Another Location

Airport or City:

Trip Planner

Search our weather history database for the weather conditions in past years. The results will help you decide how hot, cold, wet, or windy it might be!

Date:

Astronomy

May. 03, 2014 Rise Set
Actual Time 6:26 AM CEST 8:38 PM CEST
Civil Twilight 5:55 AM CEST 9:10 PM CEST
Nautical Twilight 5:16 AM CEST 9:48 PM CEST
Astronomical Twilight 4:34 AM CEST 10:31 PM CEST
Moon 9:40 AM CEST (5/3) No Moon Set
Length of Visible Light 15h 14m
Length of Day
14h 12m
Waxing Crescent, 17% of the Moon is Illuminated
May 3
Waxing Crescent
May 7
First Quarter
May 14
Full
May 21
Last Quarter
May 28
New

Hourly Weather History & Observations

Time (CEST) Temp. Dew Point Humidity Pressure Visibility Wind Dir Wind Speed Gust Speed Precip Events Conditions
12:00 AM 51 °F 47 °F 81% 29.83 in 37 mi North 4.6 mph - -   Clear
12:00 AM 51.8 °F 46.4 °F 82% 29.80 in 6.2 mi North 4.6 mph - N/A   Unknown
12:30 AM 51.8 °F 48.2 °F 88% 29.80 in 6.2 mi Variable 2.3 mph - N/A   Unknown
1:00 AM 52 °F 48 °F 80% 29.82 in 37 mi NNW 3.5 mph - -   Clear
1:00 AM 51.8 °F 48.2 °F 88% 29.80 in 6.2 mi NNW 3.5 mph - N/A   Unknown
1:30 AM 51.8 °F 46.4 °F 82% 29.80 in 6.2 mi Variable 3.5 mph - N/A   Unknown
2:00 AM 51 °F 47 °F 80% 29.80 in 37 mi North 3.5 mph - -   Clear
2:00 AM 50.0 °F 46.4 °F 87% 29.77 in 6.2 mi North 3.5 mph - N/A   Unknown
2:30 AM 50.0 °F 46.4 °F 87% 29.77 in 6.2 mi North 3.5 mph - N/A   Unknown
3:00 AM 49 °F 45 °F 83% 29.79 in 37 mi NNW 3.5 mph - -   Clear
3:00 AM 48.2 °F 44.6 °F 87% 29.77 in 6.2 mi Variable 3.5 mph - N/A   Unknown
3:30 AM 48.2 °F 44.6 °F 87% 29.77 in 6.2 mi Variable 3.5 mph - N/A   Unknown
4:00 AM 47 °F 45 °F 89% 29.78 in 37 mi North 3.5 mph - -   Clear
4:00 AM 48.2 °F 44.6 °F 87% 29.77 in 6.2 mi North 3.5 mph - N/A   Unknown
4:30 AM 50.0 °F 46.4 °F 87% 29.74 in 6.2 mi Variable 2.3 mph - N/A   Unknown
5:00 AM 49 °F 46 °F 86% 29.76 in 37 mi NW 6.9 mph - -   Clear
5:00 AM 50.0 °F 46.4 °F 87% 29.74 in 6.2 mi NW 6.9 mph - N/A   Unknown
5:30 AM 50.0 °F 46.4 °F 87% 29.74 in 6.2 mi NW 6.9 mph - N/A   Unknown
6:00 AM 50 °F 45 °F 78% 29.76 in 37 mi WNW 4.6 mph - -   Clear
6:00 AM 50.0 °F 44.6 °F 82% 29.74 in 6.2 mi WNW 4.6 mph - N/A   Unknown
6:30 AM 50.0 °F 44.6 °F 82% 29.74 in 6.2 mi Calm Calm - N/A   Unknown
7:00 AM 50 °F 46 °F 81% 29.77 in 34 mi West 1.2 mph - -   Clear
7:00 AM 50.0 °F 46.4 °F 87% 29.74 in 6.2 mi West 1.2 mph - N/A   Unknown
7:30 AM 50.0 °F 46.4 °F 87% 29.77 in 6.2 mi Calm Calm - N/A   Unknown
8:00 AM 52 °F 48 °F 82% 29.77 in 37 mi Calm Calm - -   Clear
8:00 AM 51.8 °F 48.2 °F 88% 29.74 in 6.2 mi Calm Calm - N/A   Unknown
8:30 AM 53.6 °F 50.0 °F 88% 29.74 in 6.2 mi Variable 2.3 mph - N/A   Unknown
9:00 AM 58 °F 48 °F 62% 29.78 in 34 mi SSW 1.2 mph - -   Clear
9:00 AM 59.0 °F 48.2 °F 67% 29.77 in 6.2 mi Variable 1.2 mph - N/A   Unknown
9:30 AM 60.8 °F 50.0 °F 68% 29.77 in 6.2 mi Variable 3.5 mph - N/A   Unknown
10:00 AM 63 °F 50 °F 52% 29.77 in 37 mi SSW 3.5 mph - -   Clear
10:00 AM 62.6 °F 50.0 °F 63% 29.77 in 6.2 mi Variable 3.5 mph - N/A   Unknown
10:30 AM 62.6 °F 50.0 °F 63% 29.77 in 6.2 mi SSW 5.8 mph - N/A   Unknown
11:00 AM 64 °F 52 °F 56% 29.78 in 25 mi SW 8.1 mph - -   Clear
11:00 AM 64.4 °F 51.8 °F 64% 29.77 in 6.2 mi SW 8.1 mph - N/A   Unknown
11:30 AM 68.0 °F 48.2 °F 49% 29.77 in 6.2 mi SW 10.4 mph - N/A   Unknown
12:00 PM 69 °F 46 °F 32% 29.76 in 28 mi SW 12.7 mph - -   Clear
12:00 PM 69.8 °F 46.4 °F 43% 29.74 in 6.2 mi SW 12.7 mph - N/A   Unknown
12:30 PM 69.8 °F 50.0 °F 49% 29.74 in 6.2 mi SW 12.7 mph - N/A   Unknown
1:00 PM 69 °F 49 °F 38% 29.75 in 28 mi SW 16.1 mph - -   Clear
1:00 PM 69.8 °F 48.2 °F 46% 29.74 in 6.2 mi SW 16.1 mph - N/A   Unknown
1:30 PM 71.6 °F 50.0 °F 46% 29.74 in 6.2 mi SW 15.0 mph - N/A   Unknown
2:00 PM 71 °F 48 °F 33% 29.74 in 22 mi SW 15.0 mph - -   Clear
2:00 PM 71.6 °F 48.2 °F 43% 29.74 in 6.2 mi SW 15.0 mph - N/A   Unknown
2:30 PM 71.6 °F 50.0 °F 46% 29.71 in 6.2 mi SW 16.1 mph - N/A   Unknown
3:00 PM 71 °F 51 °F 38% 29.73 in 19 mi SW 16.1 mph - -   Clear
3:00 PM 71.6 °F 51.8 °F 50% 29.71 in 6.2 mi SW 16.1 mph - N/A   Unknown
3:30 PM 71.6 °F 48.2 °F 43% 29.71 in 6.2 mi SW 16.1 mph - N/A   Unknown
4:00 PM 71 °F 50 °F 36% 29.71 in 28 mi SW 17.3 mph - -   Clear
4:00 PM 71.6 °F 50.0 °F 46% 29.68 in 6.2 mi SW 17.3 mph - N/A   Unknown
4:30 PM 73.4 °F 50.0 °F 44% 29.68 in 6.2 mi SW 17.3 mph - N/A   Unknown
5:00 PM 74 °F 48 °F 28% 29.70 in 22 mi WSW 16.1 mph - -   Clear
5:00 PM 75.2 °F 48.2 °F 38% 29.68 in 6.2 mi WSW 16.1 mph - N/A Thunderstorm Unknown
5:30 PM 71.6 °F 46.4 °F 41% 29.68 in 6.2 mi SW 11.5 mph - N/A   Unknown
6:00 PM 68 °F 49 °F 41% 29.73 in 11 mi ENE 9.2 mph - -   Clear
6:00 PM 68.0 °F 50.0 °F 52% 29.71 in 6.2 mi ENE 9.2 mph 21.9 mph N/A   Unknown
6:30 PM 64.4 °F 50.0 °F 59% 29.71 in 6.2 mi NE 9.2 mph - N/A   Unknown
7:00 PM 65 °F 47 °F 41% 29.75 in 14 mi North 6.9 mph - -   Clear
7:00 PM 66.2 °F 46.4 °F 49% 29.74 in 6.2 mi North 6.9 mph - N/A   Unknown
7:30 PM 66.2 °F 48.2 °F 52% 29.74 in 6.2 mi ENE 5.8 mph - N/A   Unknown
8:00 PM 66 °F 46 °F 38% 29.76 in 34 mi North 3.5 mph - -   Clear
8:00 PM 66.2 °F 46.4 °F 49% 29.74 in 6.2 mi North 3.5 mph - N/A   Unknown
8:30 PM 64.4 °F 46.4 °F 52% 29.74 in 6.2 mi Variable 3.5 mph - N/A   Unknown
9:00 PM 65 °F 44 °F 35% 29.75 in 25 mi WNW 8.1 mph - -   Clear
9:00 PM 64.4 °F 44.6 °F 49% 29.74 in 6.2 mi WNW 8.1 mph - N/A   Unknown
9:30 PM 64.4 °F 44.6 °F 49% 29.74 in 6.2 mi NW 8.1 mph - N/A   Unknown
10:00 PM 62 °F 46 °F 45% 29.78 in 37 mi East 6.9 mph - -   Clear
10:00 PM 62.6 °F 46.4 °F 55% 29.77 in 6.2 mi East 6.9 mph - N/A   Unknown
10:30 PM 60.8 °F 46.4 °F 59% 29.77 in 6.2 mi Variable 3.5 mph - N/A   Unknown
11:00 PM 58 °F 46 °F 55% 29.80 in 37 mi North 3.5 mph - -   Clear
11:00 PM 57.2 °F 46.4 °F 67% 29.77 in 6.2 mi North 3.5 mph - N/A   Unknown
11:30 PM 55.4 °F 46.4 °F 72% 29.80 in 6.2 mi North 5.8 mph - N/A   Unknown